logo
Rechercher aéroport 
image banner adimage banner adimage banner ad
image banner ad

LSPF - Schaffhausen

Situé à Schaffhausen, Switzerland

ICAO - LSPF, IATA -

Données fournies par Airmate  

Information générale

Coordonnées: N47°41'26" E8°31'37"
Élévation : 1519 feet MSL.
Variation magnétique : 3.358° East
Voir autres Aéroports à Schaffhausen

Données opérationnelles

Special qualification required
Heure actuelle UTC:
Heure actuelle locale:
Météo à : LSZH - Zurich ( 26 km )
METAR: LSZH 282050Z VRB01KT CAVOK 12/08 Q1020 NOSIG
TAF: TAF LSZH 282025Z 2821/3003 VRB02KT CAVOK TX19/2913Z TN10/2904Z BECMG 2908/2911 26008KT 9999 BKN050 PROB30 TEMPO 2910/2918 RA BECMG 2917/2919 VRB02KT PROB40 TEMPO 2922/3003 RA
Voir NOTAMs / SUP AIP / TFR affectant cet aéroport [VIEW]
Fréquences de communication: [VIEW]

Pistes:

Identifiant RWYQFULongueur (ft)Largeur (ft)SurfaceLDA (ft)
0767°177298GRASS
25247°177298GRASS

Coordonnées de l'aéroport

Adresse: Schaffhausen Switzerland

Autres services d'aviation

Clubs d'aviation (sans but lucratif)

Segelfluggruppe Schaffhausen

Segelfluggruppe Schaffhausen

Vue satellite de LSPF